sensor_id;sensor_type;location;lat;lon;timestamp;pressure;altitude;pressure_sealevel;temperature;humidity
48077;BME280;33854;57.708;12.008;2023-03-13T00:02:09;96428.44;;;-0.73;100.00
48077;BME280;33854;57.708;12.008;2023-03-13T00:04:34;96401.81;;;-0.70;100.00
48077;BME280;33854;57.708;12.008;2023-03-13T00:06:59;96406.09;;;-0.71;100.00
48077;BME280;33854;57.708;12.008;2023-03-13T00:09:25;96381.31;;;-0.70;100.00
48077;BME280;33854;57.708;12.008;2023-03-13T00:11:51;96385.41;;;-0.68;100.00
48077;BME280;33854;57.708;12.008;2023-03-13T00:14:17;96381.94;;;-0.67;100.00
48077;BME280;33854;57.708;12.008;2023-03-13T00:16:42;96347.69;;;-0.66;100.00
48077;BME280;33854;57.708;12.008;2023-03-13T00:19:08;96346.19;;;-0.68;100.00
48077;BME280;33854;57.708;12.008;2023-03-13T00:21:34;96357.63;;;-0.61;100.00
48077;BME280;33854;57.708;12.008;2023-03-13T00:24:02;96339.09;;;-0.65;100.00
48077;BME280;33854;57.708;12.008;2023-03-13T00:26:28;96336.22;;;-0.60;100.00
48077;BME280;33854;57.708;12.008;2023-03-13T00:28:54;96336.72;;;-0.55;100.00
48077;BME280;33854;57.708;12.008;2023-03-13T00:31:27;96329.03;;;-0.55;100.00
48077;BME280;33854;57.708;12.008;2023-03-13T00:33:56;96309.34;;;-0.54;100.00
48077;BME280;33854;57.708;12.008;2023-03-13T00:36:24;96296.66;;;-0.56;100.00
48077;BME280;33854;57.708;12.008;2023-03-13T00:38:51;96289.91;;;-0.57;100.00
48077;BME280;33854;57.708;12.008;2023-03-13T00:41:26;96265.94;;;-0.56;100.00
48077;BME280;33854;57.708;12.008;2023-03-13T00:43:52;96254.78;;;-0.55;100.00
48077;BME280;33854;57.708;12.008;2023-03-13T00:46:20;96235.34;;;-0.57;100.00
48077;BME280;33854;57.708;12.008;2023-03-13T00:48:46;96217.44;;;-0.57;100.00
48077;BME280;33854;57.708;12.008;2023-03-13T00:51:13;96203.69;;;-0.57;100.00
48077;BME280;33854;57.708;12.008;2023-03-13T00:53:39;96170.53;;;-0.58;100.00
48077;BME280;33854;57.708;12.008;2023-03-13T00:56:10;96164.56;;;-0.59;100.00
48077;BME280;33854;57.708;12.008;2023-03-13T00:58:38;96174.91;;;-0.60;100.00
48077;BME280;33854;57.708;12.008;2023-03-13T01:01:12;96138.59;;;-0.65;100.00
48077;BME280;33854;57.708;12.008;2023-03-13T01:03:39;96137.34;;;-0.60;100.00
48077;BME280;33854;57.708;12.008;2023-03-13T01:06:07;96130.38;;;-0.57;100.00
48077;BME280;33854;57.708;12.008;2023-03-13T01:08:32;96125.34;;;-0.59;100.00
48077;BME280;33854;57.708;12.008;2023-03-13T01:11:04;96092.88;;;-0.59;100.00
48077;BME280;33854;57.708;12.008;2023-03-13T01:13:30;96073.47;;;-0.61;100.00
48077;BME280;33854;57.708;12.008;2023-03-13T01:16:20;96069.72;;;-0.57;100.00
48077;BME280;33854;57.708;12.008;2023-03-13T01:18:50;96024.81;;;-0.72;100.00
48077;BME280;33854;57.708;12.008;2023-03-13T01:21:17;96042.50;;;-0.58;100.00
48077;BME280;33854;57.708;12.008;2023-03-13T01:23:44;96030.41;;;-0.56;100.00
48077;BME280;33854;57.708;12.008;2023-03-13T01:26:10;96022.94;;;-0.59;100.00
48077;BME280;33854;57.708;12.008;2023-03-13T01:28:36;96014.34;;;-0.58;100.00
48077;BME280;33854;57.708;12.008;2023-03-13T01:31:13;96006.97;;;-0.51;100.00
48077;BME280;33854;57.708;12.008;2023-03-13T01:33:38;95992.44;;;-0.51;100.00
48077;BME280;33854;57.708;12.008;2023-03-13T01:36:04;95977.31;;;-0.54;100.00
48077;BME280;33854;57.708;12.008;2023-03-13T01:38:30;95953.59;;;-0.56;100.00
48077;BME280;33854;57.708;12.008;2023-03-13T01:40:55;95938.91;;;-0.54;100.00
48077;BME280;33854;57.708;12.008;2023-03-13T01:43:26;95927.06;;;-0.55;100.00
48077;BME280;33854;57.708;12.008;2023-03-13T01:46:04;95921.81;;;-0.53;100.00
48077;BME280;33854;57.708;12.008;2023-03-13T01:51:02;95904.34;;;-0.48;100.00
48077;BME280;33854;57.708;12.008;2023-03-13T01:53:32;95895.84;;;-0.49;100.00
48077;BME280;33854;57.708;12.008;2023-03-13T01:55:59;95866.41;;;-0.54;100.00
48077;BME280;33854;57.708;12.008;2023-03-13T01:58:30;95879.53;;;-0.48;100.00
48077;BME280;33854;57.708;12.008;2023-03-13T02:00:56;95874.19;;;-0.45;100.00
48077;BME280;33854;57.708;12.008;2023-03-13T02:03:22;95864.06;;;-0.46;100.00
48077;BME280;33854;57.708;12.008;2023-03-13T02:05:49;95848.25;;;-0.51;100.00
48077;BME280;33854;57.708;12.008;2023-03-13T02:08:18;95845.19;;;-0.45;100.00
48077;BME280;33854;57.708;12.008;2023-03-13T02:13:49;95827.16;;;-0.44;100.00
48077;BME280;33854;57.708;12.008;2023-03-13T02:16:14;95822.03;;;-0.44;100.00
48077;BME280;33854;57.708;12.008;2023-03-13T02:18:40;95824.47;;;-0.42;100.00
48077;BME280;33854;57.708;12.008;2023-03-13T02:24:19;95808.03;;;-0.40;100.00
48077;BME280;33854;57.708;12.008;2023-03-13T02:26:47;95801.88;;;-0.37;100.00
48077;BME280;33854;57.708;12.008;2023-03-13T02:29:12;95799.06;;;-0.34;100.00
48077;BME280;33854;57.708;12.008;2023-03-13T02:31:46;95792.91;;;-0.32;100.00
48077;BME280;33854;57.708;12.008;2023-03-13T02:34:14;95778.22;;;-0.30;100.00
48077;BME280;33854;57.708;12.008;2023-03-13T02:36:43;95781.34;;;-0.26;100.00
48077;BME280;33854;57.708;12.008;2023-03-13T02:39:09;95769.06;;;-0.23;100.00
48077;BME280;33854;57.708;12.008;2023-03-13T02:41:37;95766.41;;;-0.21;100.00
48077;BME280;33854;57.708;12.008;2023-03-13T02:44:04;95761.97;;;-0.19;100.00
48077;BME280;33854;57.708;12.008;2023-03-13T02:46:42;95753.09;;;-0.15;100.00
48077;BME280;33854;57.708;12.008;2023-03-13T02:49:22;95749.47;;;-0.13;100.00
48077;BME280;33854;57.708;12.008;2023-03-13T02:51:49;95737.59;;;-0.14;100.00
48077;BME280;33854;57.708;12.008;2023-03-13T02:54:19;95743.13;;;-0.09;100.00
48077;BME280;33854;57.708;12.008;2023-03-13T02:56:47;95728.47;;;-0.07;100.00
48077;BME280;33854;57.708;12.008;2023-03-13T02:59:14;95724.84;;;-0.04;100.00
48077;BME280;33854;57.708;12.008;2023-03-13T03:01:40;95707.84;;;-0.05;100.00
48077;BME280;33854;57.708;12.008;2023-03-13T03:04:05;95697.31;;;-0.02;100.00
48077;BME280;33854;57.708;12.008;2023-03-13T03:06:31;95686.81;;;0.01;100.00
48077;BME280;33854;57.708;12.008;2023-03-13T03:08:57;95675.50;;;0.04;100.00
48077;BME280;33854;57.708;12.008;2023-03-13T03:11:22;95672.00;;;0.05;100.00
48077;BME280;33854;57.708;12.008;2023-03-13T03:13:48;95670.13;;;0.07;100.00
48077;BME280;33854;57.708;12.008;2023-03-13T03:16:14;95666.63;;;0.08;100.00
48077;BME280;33854;57.708;12.008;2023-03-13T03:18:43;95658.78;;;0.09;100.00
48077;BME280;33854;57.708;12.008;2023-03-13T03:21:08;95662.84;;;0.12;100.00
48077;BME280;33854;57.708;12.008;2023-03-13T03:23:35;95661.00;;;0.14;100.00
48077;BME280;33854;57.708;12.008;2023-03-13T03:26:01;95658.44;;;0.14;100.00
48077;BME280;33854;57.708;12.008;2023-03-13T03:28:27;95658.16;;;0.17;100.00
48077;BME280;33854;57.708;12.008;2023-03-13T03:30:53;95651.00;;;0.11;100.00
48077;BME280;33854;57.708;12.008;2023-03-13T03:33:22;95654.53;;;0.19;100.00
48077;BME280;33854;57.708;12.008;2023-03-13T03:35:48;95637.25;;;0.21;100.00
48077;BME280;33854;57.708;12.008;2023-03-13T03:38:14;95629.47;;;0.23;100.00
48077;BME280;33854;57.708;12.008;2023-03-13T03:40:40;95624.06;;;0.26;100.00
48077;BME280;33854;57.708;12.008;2023-03-13T03:43:05;95613.81;;;0.26;100.00
48077;BME280;33854;57.708;12.008;2023-03-13T03:45:31;95609.63;;;0.25;100.00
48077;BME280;33854;57.708;12.008;2023-03-13T03:47:56;95616.22;;;0.27;100.00
48077;BME280;33854;57.708;12.008;2023-03-13T03:50:24;95611.91;;;0.28;100.00
48077;BME280;33854;57.708;12.008;2023-03-13T03:52:50;95616.91;;;0.29;100.00
48077;BME280;33854;57.708;12.008;2023-03-13T03:55:16;95616.78;;;0.31;100.00
48077;BME280;33854;57.708;12.008;2023-03-13T03:57:41;95608.28;;;0.30;100.00
48077;BME280;33854;57.708;12.008;2023-03-13T04:00:07;95620.28;;;0.30;100.00
48077;BME280;33854;57.708;12.008;2023-03-13T04:02:34;95606.94;;;0.36;100.00
48077;BME280;33854;57.708;12.008;2023-03-13T04:05:01;95609.50;;;0.36;100.00
48077;BME280;33854;57.708;12.008;2023-03-13T04:07:26;95602.06;;;0.33;100.00
48077;BME280;33854;57.708;12.008;2023-03-13T04:09:52;95607.75;;;0.36;100.00
48077;BME280;33854;57.708;12.008;2023-03-13T04:12:17;95613.44;;;0.40;100.00
48077;BME280;33854;57.708;12.008;2023-03-13T04:14:43;95605.75;;;0.40;100.00
48077;BME280;33854;57.708;12.008;2023-03-13T04:17:08;95601.94;;;0.44;100.00
48077;BME280;33854;57.708;12.008;2023-03-13T04:19:34;95598.56;;;0.43;100.00
48077;BME280;33854;57.708;12.008;2023-03-13T04:21:59;95604.25;;;0.47;100.00
48077;BME280;33854;57.708;12.008;2023-03-13T04:24:24;95596.56;;;0.47;100.00
48077;BME280;33854;57.708;12.008;2023-03-13T04:26:50;95594.66;;;0.49;100.00
48077;BME280;33854;57.708;12.008;2023-03-13T04:29:15;95591.97;;;0.50;100.00
48077;BME280;33854;57.708;12.008;2023-03-13T04:31:41;95586.03;;;0.50;100.00
48077;BME280;33854;57.708;12.008;2023-03-13T04:34:06;95578.91;;;0.53;100.00
48077;BME280;33854;57.708;12.008;2023-03-13T04:36:32;95572.69;;;0.56;100.00
48077;BME280;33854;57.708;12.008;2023-03-13T04:38:57;95561.22;;;0.60;100.00
48077;BME280;33854;57.708;12.008;2023-03-13T04:41:22;95561.88;;;0.62;100.00
48077;BME280;33854;57.708;12.008;2023-03-13T04:43:48;95547.72;;;0.68;100.00
48077;BME280;33854;57.708;12.008;2023-03-13T04:46:13;95542.56;;;0.68;100.00
48077;BME280;33854;57.708;12.008;2023-03-13T04:48:39;95543.41;;;0.68;100.00
48077;BME280;33854;57.708;12.008;2023-03-13T04:51:04;95555.81;;;0.73;100.00
48077;BME280;33854;57.708;12.008;2023-03-13T04:53:30;95572.66;;;0.75;100.00
48077;BME280;33854;57.708;12.008;2023-03-13T04:55:55;95574.16;;;0.78;100.00
48077;BME280;33854;57.708;12.008;2023-03-13T04:58:20;95568.63;;;0.82;100.00
48077;BME280;33854;57.708;12.008;2023-03-13T05:00:46;95551.50;;;0.83;100.00
48077;BME280;33854;57.708;12.008;2023-03-13T05:03:11;95548.09;;;0.82;100.00
48077;BME280;33854;57.708;12.008;2023-03-13T05:05:37;95541.75;;;0.86;100.00
48077;BME280;33854;57.708;12.008;2023-03-13T05:08:02;95557.13;;;0.86;100.00
48077;BME280;33854;57.708;12.008;2023-03-13T05:10:29;95545.94;;;0.87;100.00
48077;BME280;33854;57.708;12.008;2023-03-13T05:12:54;95545.00;;;0.88;100.00
48077;BME280;33854;57.708;12.008;2023-03-13T05:15:20;95544.03;;;0.89;100.00
48077;BME280;33854;57.708;12.008;2023-03-13T05:17:45;95537.84;;;0.92;100.00
48077;BME280;33854;57.708;12.008;2023-03-13T05:20:11;95534.19;;;0.94;100.00
48077;BME280;33854;57.708;12.008;2023-03-13T05:22:37;95534.03;;;0.96;100.00
48077;BME280;33854;57.708;12.008;2023-03-13T05:25:03;95537.41;;;0.96;100.00
48077;BME280;33854;57.708;12.008;2023-03-13T05:27:29;95542.81;;;0.93;100.00
48077;BME280;33854;57.708;12.008;2023-03-13T05:29:55;95542.28;;;0.99;100.00
48077;BME280;33854;57.708;12.008;2023-03-13T05:32:20;95537.97;;;1.00;100.00
48077;BME280;33854;57.708;12.008;2023-03-13T05:34:46;95514.03;;;0.99;100.00
48077;BME280;33854;57.708;12.008;2023-03-13T05:37:11;95528.91;;;1.05;100.00
48077;BME280;33854;57.708;12.008;2023-03-13T05:39:37;95527.66;;;1.09;100.00
48077;BME280;33854;57.708;12.008;2023-03-13T05:42:02;95511.31;;;1.10;100.00
48077;BME280;33854;57.708;12.008;2023-03-13T05:44:28;95510.88;;;1.15;100.00
48077;BME280;33854;57.708;12.008;2023-03-13T05:46:53;95515.34;;;1.23;100.00
48077;BME280;33854;57.708;12.008;2023-03-13T05:49:19;95516.81;;;1.25;100.00
48077;BME280;33854;57.708;12.008;2023-03-13T05:51:44;95520.03;;;1.27;100.00
48077;BME280;33854;57.708;12.008;2023-03-13T05:54:09;95518.00;;;1.31;100.00
48077;BME280;33854;57.708;12.008;2023-03-13T05:56:35;95503.25;;;1.33;100.00
48077;BME280;33854;57.708;12.008;2023-03-13T05:59:00;95491.13;;;1.35;100.00
48077;BME280;33854;57.708;12.008;2023-03-13T06:01:26;95479.75;;;1.37;100.00
48077;BME280;33854;57.708;12.008;2023-03-13T06:03:51;95474.63;;;1.37;100.00
48077;BME280;33854;57.708;12.008;2023-03-13T06:06:17;95466.91;;;1.37;100.00
48077;BME280;33854;57.708;12.008;2023-03-13T06:08:42;95459.47;;;1.34;100.00
48077;BME280;33854;57.708;12.008;2023-03-13T06:11:07;95481.31;;;1.48;100.00
48077;BME280;33854;57.708;12.008;2023-03-13T06:13:33;95470.59;;;1.52;100.00
48077;BME280;33854;57.708;12.008;2023-03-13T06:15:58;95461.31;;;1.51;100.00
48077;BME280;33854;57.708;12.008;2023-03-13T06:18:24;95462.31;;;1.58;100.00
48077;BME280;33854;57.708;12.008;2023-03-13T06:20:57;95452.06;;;1.58;100.00
48077;BME280;33854;57.708;12.008;2023-03-13T06:23:22;95448.91;;;1.64;100.00
48077;BME280;33854;57.708;12.008;2023-03-13T06:25:48;95462.28;;;1.68;100.00
48077;BME280;33854;57.708;12.008;2023-03-13T06:28:14;95441.44;;;1.71;100.00
48077;BME280;33854;57.708;12.008;2023-03-13T06:30:39;95416.94;;;1.77;100.00
48077;BME280;33854;57.708;12.008;2023-03-13T06:33:05;95319.66;;;1.82;100.00
48077;BME280;33854;57.708;12.008;2023-03-13T06:35:30;95261.72;;;1.69;100.00
48077;BME280;33854;57.708;12.008;2023-03-13T06:37:56;95255.31;;;1.91;100.00
48077;BME280;33854;57.708;12.008;2023-03-13T06:40:21;95261.75;;;1.95;100.00
48077;BME280;33854;57.708;12.008;2023-03-13T06:42:47;95263.59;;;2.03;100.00
48077;BME280;33854;57.708;12.008;2023-03-13T06:45:12;95249.31;;;2.08;100.00
48077;BME280;33854;57.708;12.008;2023-03-13T06:47:38;95246.91;;;2.07;100.00
48077;BME280;33854;57.708;12.008;2023-03-13T06:50:03;95234.59;;;2.18;100.00
48077;BME280;33854;57.708;12.008;2023-03-13T06:52:29;95247.94;;;2.22;100.00
48077;BME280;33854;57.708;12.008;2023-03-13T06:54:54;95229.00;;;2.23;100.00
48077;BME280;33854;57.708;12.008;2023-03-13T06:57:20;95219.56;;;2.32;100.00
48077;BME280;33854;57.708;12.008;2023-03-13T06:59:45;95212.06;;;2.38;100.00
48077;BME280;33854;57.708;12.008;2023-03-13T07:02:11;95248.41;;;2.43;100.00
48077;BME280;33854;57.708;12.008;2023-03-13T07:04:37;95232.34;;;2.49;100.00
48077;BME280;33854;57.708;12.008;2023-03-13T07:07:02;95218.41;;;2.60;100.00
48077;BME280;33854;57.708;12.008;2023-03-13T07:09:28;95213.91;;;2.62;100.00
48077;BME280;33854;57.708;12.008;2023-03-13T07:11:53;95213.91;;;2.70;100.00
48077;BME280;33854;57.708;12.008;2023-03-13T07:14:19;95194.34;;;2.77;100.00
48077;BME280;33854;57.708;12.008;2023-03-13T07:16:45;95199.97;;;2.80;100.00
48077;BME280;33854;57.708;12.008;2023-03-13T07:19:11;95153.81;;;2.87;100.00
48077;BME280;33854;57.708;12.008;2023-03-13T07:21:36;95172.97;;;2.93;100.00
48077;BME280;33854;57.708;12.008;2023-03-13T07:24:02;95166.22;;;2.92;100.00
48077;BME280;33854;57.708;12.008;2023-03-13T07:26:28;95153.97;;;2.94;100.00
48077;BME280;33854;57.708;12.008;2023-03-13T07:28:54;95159.94;;;3.02;100.00
48077;BME280;33854;57.708;12.008;2023-03-13T07:31:20;95166.53;;;3.05;100.00
48077;BME280;33854;57.708;12.008;2023-03-13T07:33:48;95171.88;;;3.11;100.00
48077;BME280;33854;57.708;12.008;2023-03-13T07:36:16;95174.31;;;3.13;100.00
48077;BME280;33854;57.708;12.008;2023-03-13T07:38:42;95168.97;;;3.22;100.00
48077;BME280;33854;57.708;12.008;2023-03-13T07:41:11;95168.66;;;3.25;100.00
48077;BME280;33854;57.708;12.008;2023-03-13T07:43:40;95171.41;;;3.32;100.00
48077;BME280;33854;57.708;12.008;2023-03-13T07:46:08;95149.19;;;3.31;100.00
48077;BME280;33854;57.708;12.008;2023-03-13T07:48:37;95134.84;;;3.36;100.00
48077;BME280;33854;57.708;12.008;2023-03-13T07:51:04;95131.81;;;3.41;100.00
48077;BME280;33854;57.708;12.008;2023-03-13T07:53:30;95135.50;;;3.47;100.00
48077;BME280;33854;57.708;12.008;2023-03-13T07:56:01;95135.50;;;3.47;100.00
48077;BME280;33854;57.708;12.008;2023-03-13T07:58:29;95116.03;;;3.44;100.00
48077;BME280;33854;57.708;12.008;2023-03-13T08:00:55;94988.97;;;3.43;100.00
48077;BME280;33854;57.708;12.008;2023-03-13T08:03:21;95114.56;;;3.50;100.00
48077;BME280;33854;57.708;12.008;2023-03-13T08:05:47;95134.84;;;3.53;100.00
48077;BME280;33854;57.708;12.008;2023-03-13T08:08:21;95071.06;;;3.55;100.00
48077;BME280;33854;57.708;12.008;2023-03-13T08:10:46;95117.59;;;3.53;100.00
48077;BME280;33854;57.708;12.008;2023-03-13T08:13:11;95123.22;;;3.57;100.00
48077;BME280;33854;57.708;12.008;2023-03-13T08:15:37;95126.13;;;3.62;100.00
48077;BME280;33854;57.708;12.008;2023-03-13T08:18:02;95128.72;;;3.70;100.00
48077;BME280;33854;57.708;12.008;2023-03-13T08:20:28;95098.41;;;3.72;100.00
48077;BME280;33854;57.708;12.008;2023-03-13T08:22:54;95071.34;;;3.68;100.00
48077;BME280;33854;57.708;12.008;2023-03-13T08:25:21;95067.78;;;3.77;100.00
48077;BME280;33854;57.708;12.008;2023-03-13T08:27:46;95073.56;;;3.79;100.00
48077;BME280;33854;57.708;12.008;2023-03-13T08:30:12;95056.66;;;3.76;100.00
48077;BME280;33854;57.708;12.008;2023-03-13T08:32:37;95044.53;;;3.85;100.00
48077;BME280;33854;57.708;12.008;2023-03-13T08:35:03;94982.22;;;3.81;100.00
48077;BME280;33854;57.708;12.008;2023-03-13T08:37:29;94953.53;;;3.84;100.00
48077;BME280;33854;57.708;12.008;2023-03-13T08:39:54;94928.38;;;3.86;100.00
48077;BME280;33854;57.708;12.008;2023-03-13T08:42:22;94920.47;;;3.88;100.00
48077;BME280;33854;57.708;12.008;2023-03-13T08:44:47;94915.78;;;3.91;100.00
48077;BME280;33854;57.708;12.008;2023-03-13T08:47:13;94887.41;;;3.91;100.00
48077;BME280;33854;57.708;12.008;2023-03-13T08:49:38;94826.56;;;3.82;100.00
48077;BME280;33854;57.708;12.008;2023-03-13T08:52:04;94814.78;;;3.88;100.00
48077;BME280;33854;57.708;12.008;2023-03-13T08:54:30;94782.88;;;3.89;100.00
48077;BME280;33854;57.708;12.008;2023-03-13T08:56:56;94770.91;;;3.96;100.00
48077;BME280;33854;57.708;12.008;2023-03-13T08:59:21;94759.94;;;3.94;100.00
48077;BME280;33854;57.708;12.008;2023-03-13T09:01:47;94735.59;;;3.96;100.00
48077;BME280;33854;57.708;12.008;2023-03-13T09:04:13;94726.25;;;3.95;100.00
48077;BME280;33854;57.708;12.008;2023-03-13T09:06:38;94713.91;;;4.06;100.00
48077;BME280;33854;57.708;12.008;2023-03-13T09:09:05;94673.56;;;4.13;100.00
48077;BME280;33854;57.708;12.008;2023-03-13T09:11:32;94654.09;;;4.10;100.00
48077;BME280;33854;57.708;12.008;2023-03-13T09:13:58;94642.06;;;4.17;100.00
48077;BME280;33854;57.708;12.008;2023-03-13T09:16:26;94638.41;;;4.26;100.00
48077;BME280;33854;57.708;12.008;2023-03-13T09:18:52;94626.84;;;4.22;100.00
48077;BME280;33854;57.708;12.008;2023-03-13T09:21:20;94620.97;;;4.28;100.00
48077;BME280;33854;57.708;12.008;2023-03-13T09:23:46;94618.22;;;4.30;100.00
48077;BME280;33854;57.708;12.008;2023-03-13T09:26:12;94632.53;;;4.32;100.00
48077;BME280;33854;57.708;12.008;2023-03-13T09:28:38;94635.72;;;4.34;100.00
48077;BME280;33854;57.708;12.008;2023-03-13T09:31:45;94630.56;;;4.34;100.00
48077;BME280;33854;57.708;12.008;2023-03-13T09:34:05;94603.97;;;4.34;100.00
48077;BME280;33854;57.708;12.008;2023-03-13T09:36:30;94611.19;;;4.38;100.00
48077;BME280;33854;57.708;12.008;2023-03-13T09:38:58;94592.69;;;4.35;100.00
48077;BME280;33854;57.708;12.008;2023-03-13T09:41:44;94584.34;;;4.33;100.00
48077;BME280;33854;57.708;12.008;2023-03-13T09:44:23;94573.66;;;4.36;100.00
48077;BME280;33854;57.708;12.008;2023-03-13T09:49:40;94582.16;;;4.36;100.00
48077;BME280;33854;57.708;12.008;2023-03-13T09:52:23;94589.53;;;4.39;100.00
48077;BME280;33854;57.708;12.008;2023-03-13T09:55:04;94572.03;;;4.35;100.00
48077;BME280;33854;57.708;12.008;2023-03-13T10:00:31;94553.63;;;4.38;100.00
48077;BME280;33854;57.708;12.008;2023-03-13T10:05:37;94562.16;;;4.38;100.00
48077;BME280;33854;57.708;12.008;2023-03-13T10:08:31;94539.41;;;4.42;100.00
48077;BME280;33854;57.708;12.008;2023-03-13T10:16:39;94520.03;;;4.52;100.00
48077;BME280;33854;57.708;12.008;2023-03-13T10:19:13;94527.78;;;4.52;100.00
48077;BME280;33854;57.708;12.008;2023-03-13T10:21:40;94508.72;;;4.53;100.00
48077;BME280;33854;57.708;12.008;2023-03-13T10:24:16;94505.53;;;4.51;100.00
48077;BME280;33854;57.708;12.008;2023-03-13T10:26:43;94505.16;;;4.54;100.00
48077;BME280;33854;57.708;12.008;2023-03-13T10:29:27;94506.34;;;4.52;100.00
48077;BME280;33854;57.708;12.008;2023-03-13T10:32:02;94493.34;;;4.45;100.00
48077;BME280;33854;57.708;12.008;2023-03-13T10:34:54;94498.03;;;4.56;100.00
48077;BME280;33854;57.708;12.008;2023-03-13T10:37:23;94487.66;;;4.50;100.00
48077;BME280;33854;57.708;12.008;2023-03-13T10:39:50;94466.22;;;4.49;100.00
48077;BME280;33854;57.708;12.008;2023-03-13T10:42:31;94471.25;;;4.57;100.00
48077;BME280;33854;57.708;12.008;2023-03-13T10:45:00;94472.84;;;4.58;100.00
48077;BME280;33854;57.708;12.008;2023-03-13T10:47:26;94450.50;;;4.44;100.00
48077;BME280;33854;57.708;12.008;2023-03-13T10:49:55;94464.38;;;4.43;100.00
48077;BME280;33854;57.708;12.008;2023-03-13T10:52:34;94455.47;;;4.46;100.00
48077;BME280;33854;57.708;12.008;2023-03-13T10:55:05;94467.81;;;4.50;100.00
48077;BME280;33854;57.708;12.008;2023-03-13T10:57:35;94621.66;;;4.51;100.00
48077;BME280;33854;57.708;12.008;2023-03-13T11:00:24;94585.53;;;4.51;100.00
48077;BME280;33854;57.708;12.008;2023-03-13T11:02:53;94590.66;;;4.66;100.00
48077;BME280;33854;57.708;12.008;2023-03-13T11:07:53;94585.84;;;4.63;100.00
48077;BME280;33854;57.708;12.008;2023-03-13T11:10:20;94573.00;;;4.70;100.00
48077;BME280;33854;57.708;12.008;2023-03-13T11:12:46;94537.41;;;4.65;100.00
48077;BME280;33854;57.708;12.008;2023-03-13T11:15:15;94535.09;;;4.70;100.00
48077;BME280;33854;57.708;12.008;2023-03-13T11:17:41;94531.72;;;4.70;100.00
48077;BME280;33854;57.708;12.008;2023-03-13T11:22:56;94521.03;;;4.73;100.00
48077;BME280;33854;57.708;12.008;2023-03-13T11:28:21;94507.19;;;4.80;100.00
48077;BME280;33854;57.708;12.008;2023-03-13T11:31:02;94490.94;;;4.86;100.00
48077;BME280;33854;57.708;12.008;2023-03-13T11:42:08;94490.22;;;4.92;100.00
48077;BME280;33854;57.708;12.008;2023-03-13T11:58:08;94427.34;;;5.06;100.00
48077;BME280;33854;57.708;12.008;2023-03-13T12:05:48;94377.09;;;5.09;100.00
48077;BME280;33854;57.708;12.008;2023-03-13T12:08:39;94341.69;;;5.03;100.00
48077;BME280;33854;57.708;12.008;2023-03-13T12:13:46;94347.88;;;5.08;100.00
48077;BME280;33854;57.708;12.008;2023-03-13T12:16:18;94318.03;;;4.99;100.00
48077;BME280;33854;57.708;12.008;2023-03-13T12:18:45;94333.19;;;5.09;100.00
48077;BME280;33854;57.708;12.008;2023-03-13T12:21:27;94318.66;;;5.08;100.00
48077;BME280;33854;57.708;12.008;2023-03-13T12:24:08;94309.97;;;5.15;100.00
48077;BME280;33854;57.708;12.008;2023-03-13T12:26:56;94284.31;;;5.14;100.00
48077;BME280;33854;57.708;12.008;2023-03-13T12:29:40;94289.31;;;5.15;100.00
48077;BME280;33854;57.708;12.008;2023-03-13T12:32:46;94274.19;;;5.12;100.00
48077;BME280;33854;57.708;12.008;2023-03-13T12:35:21;94280.56;;;5.16;100.00
48077;BME280;33854;57.708;12.008;2023-03-13T12:38:18;94279.19;;;5.21;100.00
48077;BME280;33854;57.708;12.008;2023-03-13T12:43:41;94266.09;;;5.29;100.00
48077;BME280;33854;57.708;12.008;2023-03-13T12:51:33;94306.91;;;5.53;100.00
48077;BME280;33854;57.708;12.008;2023-03-13T12:54:35;94272.72;;;5.57;100.00
48077;BME280;33854;57.708;12.008;2023-03-13T13:00:19;94301.78;;;5.72;100.00
48077;BME280;33854;57.708;12.008;2023-03-13T13:02:46;94336.44;;;5.91;100.00
48077;BME280;33854;57.708;12.008;2023-03-13T13:05:21;94342.03;;;5.95;100.00
48077;BME280;33854;57.708;12.008;2023-03-13T13:07:54;94370.88;;;5.98;100.00
48077;BME280;33854;57.708;12.008;2023-03-13T13:10:24;94383.44;;;6.01;100.00
48077;BME280;33854;57.708;12.008;2023-03-13T13:15:58;94451.50;;;6.15;100.00
48077;BME280;33854;57.708;12.008;2023-03-13T13:18:26;94444.38;;;6.17;100.00
48077;BME280;33854;57.708;12.008;2023-03-13T13:23:34;94534.31;;;6.21;100.00
48077;BME280;33854;57.708;12.008;2023-03-13T13:28:52;94521.19;;;6.16;100.00
48077;BME280;33854;57.708;12.008;2023-03-13T13:34:01;94582.94;;;6.32;100.00
48077;BME280;33854;57.708;12.008;2023-03-13T13:36:29;94649.41;;;6.32;100.00
48077;BME280;33854;57.708;12.008;2023-03-13T13:38:56;94702.72;;;6.26;100.00
48077;BME280;33854;57.708;12.008;2023-03-13T13:41:23;94778.16;;;6.23;100.00
48077;BME280;33854;57.708;12.008;2023-03-13T13:44:13;94816.97;;;6.23;100.00
48077;BME280;33854;57.708;12.008;2023-03-13T13:46:35;95024.44;;;6.27;100.00
48077;BME280;33854;57.708;12.008;2023-03-13T13:51:28;95179.81;;;6.34;100.00
48077;BME280;33854;57.708;12.008;2023-03-13T13:54:01;95207.13;;;6.36;100.00
48077;BME280;33854;57.708;12.008;2023-03-13T13:59:11;95337.06;;;6.31;100.00
48077;BME280;33854;57.708;12.008;2023-03-13T14:01:40;95359.56;;;6.31;100.00
48077;BME280;33854;57.708;12.008;2023-03-13T14:04:14;95505.50;;;6.30;100.00
48077;BME280;33854;57.708;12.008;2023-03-13T14:06:41;95652.84;;;6.31;100.00
48077;BME280;33854;57.708;12.008;2023-03-13T14:11:54;95995.22;;;6.34;100.00
48077;BME280;33854;57.708;12.008;2023-03-13T14:14:21;96104.13;;;6.40;100.00
48077;BME280;33854;57.708;12.008;2023-03-13T14:19:21;96157.09;;;6.46;100.00
48077;BME280;33854;57.708;12.008;2023-03-13T14:21:47;96192.22;;;6.48;100.00
48077;BME280;33854;57.708;12.008;2023-03-13T14:24:13;96264.44;;;6.51;100.00
48077;BME280;33854;57.708;12.008;2023-03-13T14:26:41;96264.91;;;6.55;100.00
48077;BME280;33854;57.708;12.008;2023-03-13T14:29:06;96309.75;;;6.55;100.00